ACA427 CYUL-CYYZ
Flight info
| Callsign | ACA427 |
|---|---|
| Flight time | N/A |
| Altitude | 36000 |
| Route | BOBKI DCT MELTI DCT TORNI RAGID6 |
| Aircraft | B38M/M-SDE1FGHILORVWXY/HB1 |
Departure
| Time | 2026-05-05 23:09 |
|---|---|
| Airport | Montreal / Pierre Elliott Trudeau International Airport (CYUL) |
Arrival
| Time | N/A |
|---|---|
| Airport | Toronto Pearson International Airport (CYYZ) |
| Time | Latitude | Longitude | Altitude | Speed | Heading |
|---|---|---|---|---|---|
| 2026-05-05 22:46 | 45.45883 | -73.74745 | 116 ft | 0 kts | 195° |
| 2026-05-05 22:58 | 45.45884 | -73.74745 | 116 ft | 2 kts | 195° |
| 2026-05-05 22:59 | 45.45895 | -73.74740 | 114 ft | 2 kts | 195° |
| 2026-05-05 22:59 | 45.45907 | -73.74736 | 112 ft | 2 kts | 195° |
| 2026-05-05 22:59 | 45.45918 | -73.74732 | 114 ft | 2 kts | 195° |
| 2026-05-05 22:59 | 45.45929 | -73.74727 | 112 ft | 2 kts | 186° |
| 2026-05-05 23:00 | 45.45953 | -73.74729 | 113 ft | 2 kts | 158° |
| 2026-05-05 23:00 | 45.45961 | -73.74736 | 112 ft | 0 kts | 118° |
| 2026-05-05 23:01 | 45.45958 | -73.74722 | 113 ft | 3 kts | 111° |
| 2026-05-05 23:02 | 45.45951 | -73.74689 | 115 ft | 4 kts | 103° |
| 2026-05-05 23:02 | 45.45951 | -73.74644 | 114 ft | 6 kts | 83° |
| 2026-05-05 23:02 | 45.45959 | -73.74587 | 115 ft | 6 kts | 74° |
| 2026-05-05 23:02 | 45.45973 | -73.74525 | 117 ft | 7 kts | 71° |
| 2026-05-05 23:03 | 45.45993 | -73.74443 | 117 ft | 11 kts | 71° |
| 2026-05-05 23:03 | 45.46005 | -73.74339 | 116 ft | 9 kts | 108° |
| 2026-05-05 23:03 | 45.46007 | -73.74243 | 115 ft | 11 kts | 68° |
| 2026-05-05 23:03 | 45.46062 | -73.74155 | 114 ft | 13 kts | 41° |
| 2026-05-05 23:04 | 45.46138 | -73.74058 | 113 ft | 17 kts | 43° |
| 2026-05-05 23:04 | 45.46229 | -73.73937 | 113 ft | 18 kts | 42° |
| 2026-05-05 23:04 | 45.46325 | -73.73812 | 118 ft | 20 kts | 43° |
| 2026-05-05 23:04 | 45.46433 | -73.73672 | 119 ft | 22 kts | 42° |
| 2026-05-05 23:05 | 45.46557 | -73.73515 | 113 ft | 26 kts | 44° |
| 2026-05-05 23:05 | 45.46692 | -73.73329 | 112 ft | 29 kts | 44° |
| 2026-05-05 23:05 | 45.46841 | -73.73135 | 112 ft | 29 kts | 41° |
| 2026-05-05 23:05 | 45.46991 | -73.72939 | 116 ft | 29 kts | 42° |
| 2026-05-05 23:06 | 45.47143 | -73.72736 | 118 ft | 30 kts | 41° |
| 2026-05-05 23:06 | 45.47305 | -73.72526 | 114 ft | 33 kts | 43° |
| 2026-05-05 23:06 | 45.47476 | -73.72313 | 115 ft | 34 kts | 40° |
| 2026-05-05 23:06 | 45.47645 | -73.72086 | 117 ft | 30 kts | 49° |
| 2026-05-05 23:07 | 45.47782 | -73.71905 | 117 ft | 28 kts | 45° |
| 2026-05-05 23:07 | 45.47768 | -73.71714 | 110 ft | 22 kts | 135° |
| 2026-05-05 23:07 | 45.47640 | -73.71682 | 114 ft | 20 kts | 219° |
| 2026-05-05 23:07 | 45.47520 | -73.71837 | 114 ft | 43 kts | 224° |
| 2026-05-05 23:08 | 45.47129 | -73.72345 | 113 ft | 106 kts | 221° |
| 2026-05-05 23:08 | 45.46489 | -73.73247 | 119 ft | 150 kts | 226° |
| 2026-05-05 23:08 | 45.45632 | -73.74280 | 240 ft | 174 kts | 228° |
| 2026-05-05 23:08 | 45.44621 | -73.75575 | 683 ft | 208 kts | 226° |
| 2026-05-05 23:09 | 45.43555 | -73.76927 | 1446 ft | 208 kts | 226° |
| 2026-05-05 23:09 | 45.42458 | -73.78301 | 1973 ft | 203 kts | 229° |
| 2026-05-05 23:09 | 45.41622 | -73.79874 | 2271 ft | 218 kts | 241° |
| 2026-05-05 23:09 | 45.41256 | -73.80715 | 1636 ft | 254 kts | 240° |
| 2026-05-05 23:10 | 45.40834 | -73.81680 | 100 ft | 130 kts | 277° |